createdAt,value
2022-12-04T00:01:30.046Z,87.27
2022-12-04T00:04:03.655Z,87.18
2022-12-04T00:06:31.648Z,86.82
2022-12-04T00:08:58.887Z,87.21
2022-12-04T00:11:29.990Z,87.36
2022-12-04T00:14:06.879Z,87.28
2022-12-04T00:16:34.200Z,87.39
2022-12-04T00:19:03.610Z,87.12
2022-12-04T00:21:31.661Z,87.72
2022-12-04T00:23:59.082Z,87.67
2022-12-04T00:26:28.967Z,88.07
2022-12-04T00:28:57.417Z,88.17
2022-12-04T00:31:28.780Z,88.00
2022-12-04T00:33:57.702Z,88.27
2022-12-04T00:36:28.677Z,88.29
2022-12-04T00:38:59.079Z,88.19
2022-12-04T00:41:29.305Z,88.55
2022-12-04T00:43:57.670Z,88.28
2022-12-04T00:46:24.519Z,88.07
2022-12-04T00:48:53.884Z,88.27
2022-12-04T00:51:24.075Z,88.37
2022-12-04T00:53:54.201Z,88.40
2022-12-04T00:56:28.675Z,88.68
2022-12-04T00:58:59.724Z,88.63
2022-12-04T01:01:28.989Z,88.81
2022-12-04T01:03:58.521Z,88.88
2022-12-04T01:06:34.353Z,88.74
2022-12-04T01:09:04.799Z,88.99
2022-12-04T01:11:33.725Z,88.76
2022-12-04T01:14:01.305Z,88.88
2022-12-04T01:16:35.017Z,88.77
2022-12-04T01:19:08.874Z,88.41
2022-12-04T01:21:38.642Z,88.64
2022-12-04T01:24:08.993Z,88.66
2022-12-04T01:26:37.659Z,89.02
2022-12-04T01:29:05.045Z,88.89
2022-12-04T01:31:34.446Z,88.75
2022-12-04T01:34:01.704Z,88.97
2022-12-04T01:36:29.280Z,88.73
2022-12-04T01:38:58.559Z,88.74
2022-12-04T01:41:29.273Z,88.68
2022-12-04T01:44:17.537Z,89.01
2022-12-04T01:46:59.692Z,88.87
2022-12-04T01:49:48.569Z,89.33
2022-12-04T01:52:24.625Z,89.06
2022-12-04T01:54:58.631Z,89.24
2022-12-04T01:57:32.818Z,89.67
2022-12-04T02:00:04.891Z,89.74
2022-12-04T02:02:38.855Z,89.84
2022-12-04T02:05:22.336Z,89.54
2022-12-04T02:07:58.786Z,89.67
2022-12-04T02:10:39.963Z,89.48
2022-12-04T02:13:14.245Z,89.42
2022-12-04T02:16:19.606Z,89.23
2022-12-04T02:19:13.093Z,89.21
2022-12-04T02:21:49.799Z,89.10
2022-12-04T02:24:28.617Z,88.93
2022-12-04T02:27:03.094Z,89.41
2022-12-04T02:29:48.699Z,89.07
2022-12-04T02:32:17.720Z,89.54
2022-12-04T02:34:54.433Z,89.64
2022-12-04T02:37:37.915Z,89.30
2022-12-04T02:40:19.136Z,89.66
2022-12-04T02:42:54.117Z,89.57
2022-12-04T02:45:28.241Z,89.66
2022-12-04T02:47:58.809Z,89.82
2022-12-04T02:50:27.929Z,89.90
2022-12-04T02:53:09.026Z,89.70
2022-12-04T02:55:43.347Z,89.73
2022-12-04T02:58:18.837Z,89.75
2022-12-04T03:00:49.000Z,89.97
2022-12-04T03:03:23.187Z,89.74
2022-12-04T03:06:13.279Z,89.50
2022-12-04T03:08:48.866Z,89.72
2022-12-04T03:11:17.718Z,89.82
2022-12-04T03:13:57.899Z,89.72
2022-12-04T03:16:33.300Z,90.01
2022-12-04T03:19:26.782Z,90.22
2022-12-04T03:22:00.347Z,90.16
2022-12-04T03:24:38.873Z,90.37
2022-12-04T03:27:38.695Z,90.54
2022-12-04T03:30:19.198Z,90.26
2022-12-04T03:32:52.459Z,90.49
2022-12-04T03:35:28.373Z,90.36
2022-12-04T03:38:14.377Z,90.32
2022-12-04T03:40:58.881Z,90.18
2022-12-04T03:43:39.025Z,90.45
2022-12-04T03:46:12.789Z,90.74
2022-12-04T03:48:48.930Z,91.03
2022-12-04T03:51:23.246Z,90.80
2022-12-04T03:53:49.747Z,91.10
2022-12-04T03:56:23.132Z,90.90
2022-12-04T03:58:57.603Z,90.85
2022-12-04T04:01:33.562Z,90.74
2022-12-04T04:04:04.329Z,90.87
2022-12-04T04:06:52.362Z,90.61
2022-12-04T04:09:32.612Z,90.83
2022-12-04T04:12:09.009Z,90.94
2022-12-04T04:15:04.425Z,91.23
2022-12-04T04:17:53.437Z,91.21
2022-12-04T04:20:48.572Z,91.11
2022-12-04T04:23:39.893Z,91.74
2022-12-04T04:26:09.880Z,91.38
2022-12-04T04:28:47.312Z,91.29
2022-12-04T04:31:30.017Z,91.60
2022-12-04T04:34:07.619Z,91.82
2022-12-04T04:36:49.940Z,91.79
2022-12-04T04:39:53.556Z,91.63
2022-12-04T04:42:28.465Z,91.64
2022-12-04T04:45:08.275Z,91.97
2022-12-04T04:47:44.492Z,91.53
2022-12-04T04:50:17.479Z,91.85
2022-12-04T04:52:58.633Z,91.84
2022-12-04T04:55:27.252Z,91.90
2022-12-04T04:57:54.223Z,91.98
2022-12-04T05:00:23.084Z,92.12
2022-12-04T05:02:50.557Z,92.41
2022-12-04T05:05:19.077Z,91.98
2022-12-04T05:07:47.047Z,92.59
2022-12-04T05:10:19.224Z,92.40
2022-12-04T05:12:46.849Z,92.40
2022-12-04T05:15:13.580Z,92.68
2022-12-04T05:17:40.435Z,92.77
2022-12-04T05:20:13.557Z,92.64
2022-12-04T05:22:41.878Z,92.15
2022-12-04T05:25:18.137Z,92.45
2022-12-04T05:27:44.763Z,92.76
2022-12-04T05:30:13.764Z,92.88
2022-12-04T05:32:42.374Z,92.62
2022-12-04T05:35:11.609Z,92.66
2022-12-04T05:37:42.375Z,92.55
2022-12-04T05:40:09.917Z,92.65
2022-12-04T05:42:38.994Z,92.67
2022-12-04T05:45:08.824Z,92.67
2022-12-04T05:47:44.531Z,92.79
2022-12-04T05:50:14.095Z,92.77
2022-12-04T05:52:42.318Z,93.13
2022-12-04T05:55:09.498Z,92.95
2022-12-04T05:57:37.934Z,92.72
2022-12-04T06:00:08.938Z,92.85
2022-12-04T06:02:39.134Z,92.82
2022-12-04T06:05:07.537Z,93.19
2022-12-04T06:07:34.161Z,93.06
2022-12-04T06:10:03.555Z,92.97
2022-12-04T06:12:31.577Z,93.14
2022-12-04T06:14:58.924Z,93.08
2022-12-04T06:17:27.229Z,93.36
2022-12-04T06:19:57.922Z,93.37
2022-12-04T06:22:27.875Z,93.26
2022-12-04T06:24:54.479Z,93.38
2022-12-04T06:27:28.296Z,93.18
2022-12-04T06:29:58.128Z,93.06
2022-12-04T06:32:25.348Z,93.19
2022-12-04T06:34:58.078Z,93.29
2022-12-04T06:37:26.998Z,93.52
2022-12-04T06:39:53.880Z,93.50
2022-12-04T06:42:23.759Z,93.62
2022-12-04T06:44:52.087Z,93.67
2022-12-04T06:47:19.002Z,93.44
2022-12-04T06:49:49.353Z,93.16
2022-12-04T06:52:18.129Z,93.62
2022-12-04T06:54:44.797Z,93.64
2022-12-04T06:57:13.759Z,93.51
2022-12-04T06:59:43.503Z,93.60
2022-12-04T07:02:12.498Z,94.02
2022-12-04T07:04:39.497Z,93.94
2022-12-04T07:07:13.231Z,94.22
2022-12-04T07:09:39.719Z,94.25
2022-12-04T07:12:09.572Z,93.41
2022-12-04T07:14:39.341Z,94.13
2022-12-04T07:17:15.062Z,93.79
2022-12-04T07:19:48.905Z,94.22
2022-12-04T07:22:37.970Z,94.37
2022-12-04T07:25:08.798Z,94.28
2022-12-04T07:27:37.923Z,94.62
2022-12-04T07:30:15.808Z,94.66
2022-12-04T07:32:44.741Z,94.47
2022-12-04T07:35:13.779Z,94.09
2022-12-04T07:37:41.782Z,94.23
2022-12-04T07:40:09.188Z,94.76
2022-12-04T07:42:36.782Z,94.55
2022-12-04T07:45:05.585Z,94.39
2022-12-04T07:47:37.556Z,95.00
2022-12-04T07:50:07.343Z,94.56
2022-12-04T07:52:41.876Z,94.95
2022-12-04T07:55:09.500Z,94.71
2022-12-04T07:57:38.573Z,94.52
2022-12-04T08:00:12.367Z,94.71
2022-12-04T08:02:39.393Z,94.84
2022-12-04T08:05:07.314Z,95.01
2022-12-04T08:07:34.097Z,95.14
2022-12-04T08:10:03.996Z,94.78
2022-12-04T08:12:33.597Z,94.39
2022-12-04T08:15:01.326Z,94.74
2022-12-04T08:17:38.814Z,94.27
2022-12-04T08:20:32.449Z,94.46
2022-12-04T08:22:59.063Z,94.40
2022-12-04T08:25:38.911Z,94.28
2022-12-04T08:28:07.872Z,94.19
2022-12-04T08:30:37.258Z,94.13
2022-12-04T08:33:04.396Z,94.43
2022-12-04T08:35:32.427Z,94.42
2022-12-04T08:37:58.958Z,93.84
2022-12-04T08:40:27.011Z,94.03
2022-12-04T08:42:53.847Z,93.87
2022-12-04T08:45:21.957Z,93.70
2022-12-04T08:47:52.590Z,93.82
2022-12-04T08:50:19.354Z,93.79
2022-12-04T08:52:46.518Z,93.67
2022-12-04T08:55:17.606Z,93.83
2022-12-04T08:57:44.241Z,93.21
2022-12-04T09:04:09.178Z,93.37
2022-12-04T09:06:37.802Z,93.22
2022-12-04T09:09:47.891Z,92.98
2022-12-04T09:12:15.029Z,92.93
2022-12-04T09:14:48.262Z,93.24
2022-12-04T09:17:14.842Z,92.83
2022-12-04T09:19:44.455Z,92.50
2022-12-04T09:22:13.460Z,92.41
2022-12-04T09:25:43.269Z,92.39
2022-12-04T09:28:13.636Z,92.13
2022-12-04T09:31:38.060Z,91.95
2022-12-04T09:35:01.954Z,91.87
2022-12-04T09:37:29.713Z,91.67
2022-12-04T09:39:59.326Z,91.54
2022-12-04T09:42:53.853Z,91.86
2022-12-04T09:45:26.827Z,91.79
2022-12-04T09:47:58.949Z,92.10
2022-12-04T09:50:42.836Z,92.37
2022-12-04T09:53:58.593Z,91.78
2022-12-04T09:56:28.941Z,92.13
2022-12-04T09:59:24.471Z,92.06
2022-12-04T10:02:04.515Z,92.26
2022-12-04T10:04:33.097Z,92.05
2022-12-04T10:07:46.788Z,91.97
2022-12-04T10:10:24.358Z,92.13
2022-12-04T10:12:52.146Z,92.17
2022-12-04T10:15:37.660Z,92.53
2022-12-04T10:18:07.779Z,92.07
2022-12-04T10:21:02.999Z,92.27
2022-12-04T10:23:53.046Z,92.56
2022-12-04T10:26:27.996Z,91.98
2022-12-04T10:29:04.589Z,92.08
2022-12-04T10:31:37.935Z,91.92
2022-12-04T10:34:23.044Z,91.90
2022-12-04T10:37:43.495Z,92.04
2022-12-04T10:40:21.868Z,92.27
2022-12-04T10:43:01.941Z,91.89
2022-12-04T10:45:29.366Z,91.85
2022-12-04T10:47:56.655Z,92.03
2022-12-04T10:50:26.733Z,91.91
2022-12-04T10:52:53.424Z,92.31
2022-12-04T10:55:39.863Z,92.26
2022-12-04T10:58:23.183Z,92.04
2022-12-04T11:01:28.046Z,92.49
2022-12-04T11:04:09.350Z,92.17
2022-12-04T11:06:38.758Z,92.11
2022-12-04T11:09:06.610Z,92.06
2022-12-04T11:11:36.450Z,92.36
2022-12-04T11:14:13.848Z,92.19
2022-12-04T11:16:52.370Z,92.47
2022-12-04T11:19:28.888Z,92.38
2022-12-04T11:22:08.283Z,92.67
2022-12-04T11:24:42.021Z,92.68
2022-12-04T11:27:32.633Z,92.52
2022-12-04T11:30:18.654Z,92.42
2022-12-04T11:32:49.554Z,92.44
2022-12-04T11:35:23.346Z,92.60
2022-12-04T11:38:08.436Z,92.52
2022-12-04T11:41:07.565Z,92.51
2022-12-04T11:43:39.127Z,92.70
2022-12-04T11:46:23.993Z,92.70
2022-12-04T11:48:53.995Z,92.51
2022-12-04T11:51:58.626Z,92.31
2022-12-04T11:54:32.515Z,92.18
2022-12-04T11:57:24.352Z,92.19
2022-12-04T12:00:37.952Z,91.96
2022-12-04T12:03:12.750Z,92.16
2022-12-04T12:05:39.629Z,92.00
2022-12-04T12:08:09.111Z,91.95
2022-12-04T12:10:57.943Z,92.06
2022-12-04T12:13:37.294Z,91.77
2022-12-04T12:16:29.395Z,91.91
2022-12-04T12:19:08.769Z,91.67
2022-12-04T12:22:14.306Z,91.33
2022-12-04T12:24:51.489Z,91.55
2022-12-04T12:27:39.475Z,91.38
2022-12-04T12:30:18.572Z,91.52
2022-12-04T12:33:05.574Z,91.69
2022-12-04T12:35:49.866Z,91.44
2022-12-04T12:38:47.023Z,91.48
2022-12-04T12:41:25.089Z,91.44
2022-12-04T12:44:07.741Z,91.13
2022-12-04T12:46:54.426Z,90.92
2022-12-04T12:49:21.928Z,90.74
2022-12-04T12:52:08.164Z,90.49
2022-12-04T12:54:49.813Z,89.96
2022-12-04T12:57:28.070Z,89.63
2022-12-04T13:00:22.540Z,89.58
2022-12-04T13:03:24.808Z,89.42
2022-12-04T13:05:59.123Z,89.41
2022-12-04T13:08:53.173Z,89.57
2022-12-04T13:11:27.876Z,89.63
2022-12-04T13:14:03.502Z,89.75
2022-12-04T13:16:35.173Z,89.46
2022-12-04T13:19:33.686Z,89.72
2022-12-04T13:22:09.487Z,89.83
2022-12-04T13:25:18.891Z,89.68
2022-12-04T13:28:04.475Z,89.79
2022-12-04T13:30:52.704Z,89.62
2022-12-04T13:33:57.733Z,89.84
2022-12-04T13:36:33.255Z,90.03
2022-12-04T13:39:03.381Z,89.54
2022-12-04T13:41:38.197Z,89.85
2022-12-04T13:44:29.094Z,89.99
2022-12-04T13:47:01.424Z,90.05
2022-12-04T13:49:38.549Z,90.12
2022-12-04T13:52:41.647Z,90.21
2022-12-04T13:55:29.138Z,90.14
2022-12-04T13:58:01.557Z,90.04
2022-12-04T14:00:35.000Z,90.23
2022-12-04T14:03:24.356Z,90.44
2022-12-04T14:05:53.316Z,90.48
2022-12-04T14:08:21.185Z,90.38
2022-12-04T14:11:19.808Z,90.52
2022-12-04T14:13:51.611Z,90.79
2022-12-04T14:16:38.036Z,90.87
2022-12-04T14:19:24.696Z,91.11
2022-12-04T14:21:54.620Z,91.05
2022-12-04T14:24:38.632Z,91.00
2022-12-04T14:27:39.317Z,91.18
2022-12-04T14:30:54.648Z,91.40
2022-12-04T14:33:24.261Z,91.55
2022-12-04T14:39:53.547Z,92.03
2022-12-04T14:42:47.131Z,92.17
2022-12-04T14:45:56.375Z,92.11
2022-12-04T14:48:43.045Z,92.15
2022-12-04T14:51:29.913Z,92.10
2022-12-04T14:54:04.664Z,92.57
2022-12-04T14:56:32.823Z,92.56
2022-12-04T14:59:09.563Z,92.39
2022-12-04T15:01:39.025Z,92.40
2022-12-04T15:04:34.671Z,92.33
2022-12-04T15:07:13.211Z,92.47
2022-12-04T15:10:10.003Z,92.69
2022-12-04T15:12:53.149Z,92.71
2022-12-04T15:15:29.478Z,93.07
2022-12-04T15:18:19.855Z,93.09
2022-12-04T15:20:49.254Z,92.98
2022-12-04T15:23:48.041Z,93.09
2022-12-04T15:26:49.064Z,93.32
2022-12-04T15:32:39.949Z,93.11
2022-12-04T15:35:33.209Z,93.43
2022-12-04T15:38:00.366Z,93.31
2022-12-04T15:40:39.201Z,93.53
2022-12-04T15:43:19.630Z,93.39
2022-12-04T15:45:49.703Z,93.31
2022-12-04T15:48:32.048Z,93.55
2022-12-04T15:51:04.454Z,93.85
2022-12-04T15:54:08.020Z,93.77
2022-12-04T15:56:34.615Z,93.82
2022-12-04T15:59:19.126Z,93.88
2022-12-04T16:01:48.471Z,93.69
2022-12-04T16:04:23.199Z,94.03
2022-12-04T16:06:53.805Z,93.88
2022-12-04T16:09:34.327Z,93.92
2022-12-04T16:12:18.681Z,94.16
2022-12-04T16:14:52.197Z,93.97
2022-12-04T16:17:31.550Z,94.30
2022-12-04T16:19:59.617Z,94.29
2022-12-04T16:22:33.502Z,94.12
2022-12-04T16:25:00.692Z,94.10
2022-12-04T16:27:53.944Z,94.41
2022-12-04T16:30:21.454Z,94.45
2022-12-04T16:32:49.231Z,94.33
2022-12-04T16:35:19.080Z,94.55
2022-12-04T16:37:46.448Z,94.85
2022-12-04T16:40:25.033Z,94.77
2022-12-04T16:43:00.302Z,94.79
2022-12-04T16:45:38.697Z,94.96
2022-12-04T16:48:08.372Z,94.96
2022-12-04T16:50:37.884Z,94.91
2022-12-04T16:53:08.126Z,95.13
2022-12-04T16:55:39.734Z,95.24
2022-12-04T16:58:14.379Z,95.28
2022-12-04T17:00:44.621Z,95.27
2022-12-04T17:03:29.451Z,95.47
2022-12-04T17:06:03.149Z,95.17
2022-12-04T17:08:47.209Z,95.47
2022-12-04T17:11:23.996Z,95.62
2022-12-04T17:13:51.438Z,95.43
2022-12-04T17:16:23.148Z,95.60
2022-12-04T17:18:54.688Z,95.34
2022-12-04T17:21:24.377Z,95.69
2022-12-04T17:23:59.689Z,95.72
2022-12-04T17:26:35.002Z,95.69
2022-12-04T17:29:04.375Z,95.54
2022-12-04T17:31:33.188Z,95.25
2022-12-04T17:33:59.964Z,95.27
2022-12-04T17:36:29.173Z,95.23
2022-12-04T17:39:33.995Z,95.15
2022-12-04T17:42:04.842Z,94.89
2022-12-04T17:47:48.177Z,94.63
2022-12-04T17:50:14.949Z,94.80
2022-12-04T17:52:51.814Z,94.67
2022-12-04T17:55:38.583Z,94.94
2022-12-04T17:58:07.744Z,94.97
2022-12-04T18:00:34.509Z,95.12
2022-12-04T18:03:04.379Z,95.35
2022-12-04T18:05:37.659Z,95.47
2022-12-04T18:08:04.430Z,95.72
2022-12-04T18:10:32.962Z,95.62
2022-12-04T18:13:03.090Z,95.96
2022-12-04T18:15:52.340Z,96.42
2022-12-04T18:18:23.300Z,96.35
2022-12-04T18:21:12.367Z,96.65
2022-12-04T18:23:47.476Z,96.85
2022-12-04T18:26:28.850Z,97.10
2022-12-04T18:28:56.953Z,97.31
2022-12-04T18:31:26.503Z,97.32
2022-12-04T18:33:58.861Z,97.59
2022-12-04T18:36:29.544Z,97.51
2022-12-04T18:39:04.710Z,97.91
2022-12-04T18:41:32.981Z,97.86
2022-12-04T18:43:59.541Z,98.38
2022-12-04T18:46:29.153Z,98.56
2022-12-04T18:48:58.879Z,98.64
2022-12-04T18:51:48.967Z,98.92
2022-12-04T18:54:28.212Z,98.84
2022-12-04T18:56:59.762Z,99.23
2022-12-04T18:59:43.287Z,99.09
2022-12-04T19:02:13.851Z,99.07
2022-12-04T19:05:08.095Z,99.14
2022-12-04T19:07:34.719Z,99.08
2022-12-04T19:10:21.610Z,99.15
2022-12-04T19:13:19.990Z,99.11
2022-12-04T19:15:52.983Z,99.20
2022-12-04T19:18:33.888Z,99.79
2022-12-04T19:21:28.888Z,99.58
2022-12-04T19:23:59.734Z,99.68
2022-12-04T19:26:56.549Z,99.81
2022-12-04T19:29:24.356Z,99.52
2022-12-04T19:31:56.217Z,99.55
2022-12-04T19:42:44.307Z,99.57
2022-12-04T19:45:20.303Z,99.10
2022-12-04T19:47:49.542Z,99.30
2022-12-04T19:50:17.948Z,99.09
2022-12-04T19:52:53.402Z,99.12
2022-12-04T19:55:24.458Z,99.04
2022-12-04T19:57:52.947Z,99.17
2022-12-04T20:00:39.504Z,99.21
2022-12-04T20:03:07.533Z,99.09
2022-12-04T20:05:44.870Z,99.09
2022-12-04T20:10:39.116Z,98.82
2022-12-04T20:13:08.391Z,98.61
2022-12-04T20:15:39.427Z,98.80
2022-12-04T20:18:13.112Z,98.38
2022-12-04T20:20:48.910Z,98.58
2022-12-04T20:23:19.611Z,98.22
2022-12-04T20:25:58.662Z,98.04
2022-12-04T20:28:29.685Z,97.96
2022-12-04T20:30:59.950Z,98.09
2022-12-04T20:34:27.660Z,97.82
2022-12-04T20:37:03.391Z,97.61
2022-12-04T20:40:37.940Z,97.81
2022-12-04T20:43:40.307Z,97.70
2022-12-04T20:47:19.832Z,97.51
2022-12-04T20:49:49.468Z,97.46
2022-12-04T20:52:46.055Z,97.37
2022-12-04T20:55:19.985Z,97.27
2022-12-04T20:58:12.512Z,97.35
2022-12-04T21:03:54.472Z,97.31
2022-12-04T21:06:34.923Z,97.46
2022-12-04T21:09:19.572Z,97.35
2022-12-04T21:11:54.329Z,97.64
2022-12-04T21:14:53.380Z,97.46
2022-12-04T21:17:24.116Z,97.56
2022-12-04T21:20:07.706Z,97.59
2022-12-04T21:26:19.454Z,97.91
2022-12-04T21:28:53.735Z,97.93
2022-12-04T21:31:24.338Z,98.10
2022-12-04T21:33:58.027Z,98.08
2022-12-04T21:37:34.011Z,98.01
2022-12-04T21:40:03.185Z,98.10
2022-12-04T21:42:33.207Z,97.90
2022-12-04T21:45:03.257Z,98.15
2022-12-04T21:47:31.785Z,97.94
2022-12-04T21:49:59.771Z,97.90
2022-12-04T21:52:29.451Z,98.19
2022-12-04T21:54:58.800Z,98.35
2022-12-04T21:57:29.487Z,98.13
2022-12-04T21:59:57.993Z,98.15
2022-12-04T22:02:25.432Z,98.26
2022-12-04T22:04:54.525Z,98.19
2022-12-04T22:07:22.608Z,98.12
2022-12-04T22:09:49.614Z,98.31
2022-12-04T22:12:49.108Z,98.31
2022-12-04T22:15:09.695Z,98.43
2022-12-04T22:17:39.687Z,98.47
2022-12-04T22:20:08.824Z,98.27
2022-12-04T22:22:37.108Z,98.28
2022-12-04T22:25:04.967Z,98.15
2022-12-04T22:27:33.349Z,98.21
2022-12-04T22:30:01.990Z,98.23
2022-12-04T22:32:29.622Z,98.23
2022-12-04T22:34:58.963Z,98.29
2022-12-04T22:37:26.639Z,98.25
2022-12-04T22:39:53.358Z,98.37
2022-12-04T22:42:23.029Z,98.54
2022-12-04T22:44:51.228Z,98.30
2022-12-04T22:47:19.663Z,98.58
2022-12-04T22:49:49.532Z,98.82
2022-12-04T22:52:18.501Z,98.71
2022-12-04T22:54:46.474Z,98.68
2022-12-04T22:57:14.055Z,98.73
2022-12-04T22:59:41.836Z,98.60
2022-12-04T23:02:09.596Z,98.53
2022-12-04T23:04:38.426Z,98.67
2022-12-04T23:07:07.189Z,98.53
2022-12-04T23:09:34.352Z,98.64
2022-12-04T23:12:04.723Z,98.60
2022-12-04T23:14:38.229Z,98.84
2022-12-04T23:17:04.804Z,98.75
2022-12-04T23:19:34.191Z,98.80
2022-12-04T23:22:03.508Z,98.83
2022-12-04T23:24:32.846Z,98.95
2022-12-04T23:26:59.418Z,99.15
2022-12-04T23:29:51.559Z,99.29
2022-12-04T23:32:18.600Z,99.67
2022-12-04T23:34:47.087Z,99.87
2022-12-04T23:37:14.664Z,100.00
2022-12-04T23:39:43.145Z,100.00
2022-12-04T23:42:09.730Z,100.00
2022-12-04T23:44:38.734Z,100.00
2022-12-04T23:47:06.858Z,100.00
2022-12-04T23:49:33.819Z,100.00
2022-12-04T23:52:01.285Z,100.00
2022-12-04T23:54:31.771Z,100.00
2022-12-04T23:56:58.661Z,100.00
2022-12-04T23:59:26.774Z,100.00
